Time;durP1;ratioP1;P1;durP2;ratioP2;P2;SDS_P1;SDS_P2;PMS_P1;PMS_P2;Temp;Humidity;BMP_temperature;BMP_pressure;BME280_temperature;BME280_humidity;BME280_pressure;Samples;Min_cycle;Max_cycle;Signal;HPM_P1;HPM_P2
2022/10/10 00:01:18;;;;;;;1.35;1.25;;;19.70;47.70;;;;;;5136323;28;20054;-9
2022/10/10 00:03:44;;;;;;;1.20;1.10;;;19.70;47.70;;;;;;5136064;28;20475;-9
2022/10/10 00:06:12;;;;;;;1.73;0.90;;;19.80;47.80;;;;;;5136256;28;20559;-10
2022/10/10 00:08:38;;;;;;;1.15;0.90;;;19.70;47.80;;;;;;5136147;28;20491;-10
2022/10/10 00:11:04;;;;;;;1.88;1.05;;;19.70;47.80;;;;;;5136676;28;20055;-9
2022/10/10 00:13:30;;;;;;;1.10;1.00;;;19.70;47.80;;;;;;5136142;28;20043;-9
2022/10/10 00:15:56;;;;;;;2.13;1.08;;;19.70;47.90;;;;;;5136339;28;20058;-9
2022/10/10 00:18:22;;;;;;;1.83;1.20;;;19.70;47.90;;;;;;5136494;28;20055;-9
2022/10/10 00:20:49;;;;;;;1.08;0.98;;;19.70;47.90;;;;;;5136618;28;20051;-10
2022/10/10 00:23:15;;;;;;;1.10;1.00;;;19.70;47.90;;;;;;5136490;28;20109;-9
2022/10/10 00:25:41;;;;;;;1.83;1.10;;;19.70;47.80;;;;;;5135982;28;20063;-9
2022/10/10 00:28:06;;;;;;;1.17;1.08;;;19.70;47.80;;;;;;5135658;28;20055;-10
2022/10/10 00:30:32;;;;;;;1.65;1.00;;;19.80;47.80;;;;;;5136474;28;20096;-9
2022/10/10 00:32:58;;;;;;;1.10;1.00;;;19.70;47.70;;;;;;5135875;28;20126;-10
2022/10/10 00:35:24;;;;;;;1.10;1.00;;;19.80;47.80;;;;;;5136149;28;20501;-9
2022/10/10 00:37:49;;;;;;;2.20;1.27;;;19.70;47.70;;;;;;5135805;28;20047;-10
2022/10/10 00:40:15;;;;;;;1.02;0.80;;;19.70;47.70;;;;;;5135686;28;20066;-9
2022/10/10 00:42:41;;;;;;;1.75;1.10;;;19.70;47.80;;;;;;5135499;28;20159;-9
2022/10/10 00:45:25;;;;;;;1.02;0.93;;;19.70;47.70;;;;;;5135916;28;20051;-9
2022/10/10 00:47:56;;;;;;;1.40;1.00;;;19.70;47.70;;;;;;5135328;27;20380;-9
2022/10/10 00:50:22;;;;;;;1.30;1.10;;;19.70;47.80;;;;;;5135576;28;20437;-9
2022/10/10 00:52:49;;;;;;;1.13;1.02;;;19.60;47.90;;;;;;5135501;28;20042;-9
2022/10/10 00:55:16;;;;;;;1.40;0.98;;;19.60;47.90;;;;;;5135534;28;20490;-9
2022/10/10 00:57:42;;;;;;;1.02;0.95;;;19.60;48.00;;;;;;5135537;28;20055;-9
2022/10/10 01:00:08;;;;;;;2.55;1.25;;;19.60;47.90;;;;;;5135300;28;20051;-9
2022/10/10 01:02:34;;;;;;;1.05;0.90;;;19.60;47.90;;;;;;5135275;28;20043;-9
2022/10/10 01:04:59;;;;;;;1.92;1.10;;;19.70;47.90;;;;;;5135279;28;20402;-9
2022/10/10 01:07:29;;;;;;;1.52;1.20;;;19.60;47.80;;;;;;5135338;28;20599;-9
2022/10/10 01:10:00;;;;;;;1.13;0.90;;;19.70;47.90;;;;;;5135140;28;20058;-9
2022/10/10 01:12:27;;;;;;;;;;;19.70;47.90;;;;;;5135946;28;20047;-9
2022/10/10 01:15:40;;;;;;;1.50;0.93;;;19.70;47.80;;;;;;5135057;28;19930;-9
2022/10/10 01:18:38;;;;;;;0.73;0.73;;;19.70;47.80;;;;;;5051556;28;20053;-9
2022/10/10 01:21:27;;;;;;;1.35;1.10;;;19.70;47.80;;;;;;5026654;28;20062;-9
2022/10/10 01:24:16;;;;;;;1.33;1.08;;;19.70;47.80;;;;;;5134946;28;20043;-9
2022/10/10 01:26:58;;;;;;;1.15;1.05;;;19.70;47.80;;;;;;5134725;28;20085;-9
2022/10/10 01:29:31;;;;;;;;;;;19.70;47.80;;;;;;5134874;28;20051;-9
2022/10/10 01:32:12;;;;;;;1.30;0.93;;;19.60;47.80;;;;;;5135228;28;19915;-9
2022/10/10 01:34:59;;;;;;;1.40;0.93;;;19.60;47.80;;;;;;5135185;28;20055;-9
2022/10/10 01:37:32;;;;;;;1.88;1.00;;;19.60;47.90;;;;;;5134674;28;20055;-9
2022/10/10 01:40:08;;;;;;;1.05;0.95;;;19.60;47.90;;;;;;5134581;28;20078;-9
2022/10/10 01:42:40;;;;;;;1.65;1.13;;;19.60;47.90;;;;;;5135097;28;20047;-9
2022/10/10 01:45:07;;;;;;;1.30;1.05;;;19.60;47.90;;;;;;5135064;28;20475;-9
2022/10/10 01:47:32;;;;;;;0.80;0.80;;;19.60;47.90;;;;;;5134960;28;20406;-9
2022/10/10 01:50:05;;;;;;;0.80;0.80;;;19.60;47.90;;;;;;5134509;28;20051;-9
2022/10/10 01:52:47;;;;;;;0.85;0.82;;;19.60;47.90;;;;;;5134445;28;20046;-9
2022/10/10 01:55:56;;;;;;;1.45;0.95;;;19.60;47.90;;;;;;5134799;28;20067;-9
2022/10/10 01:58:40;;;;;;;0.95;0.90;;;19.60;47.90;;;;;;5133656;27;20470;-9
2022/10/10 02:01:30;;;;;;;0.93;0.80;;;19.60;47.90;;;;;;5134422;28;20051;-9
2022/10/10 02:04:33;;;;;;;0.80;0.80;;;19.60;47.90;;;;;;5134282;28;20043;-9
2022/10/10 02:07:07;;;;;;;1.17;0.88;;;19.60;47.80;;;;;;5108958;28;20111;-9
2022/10/10 02:09:38;;;;;;;1.83;1.00;;;19.60;47.90;;;;;;5134219;28;20062;-9
2022/10/10 02:12:07;;;;;;;1.48;1.13;;;19.60;47.80;;;;;;5134257;28;20039;-9
2022/10/10 02:14:39;;;;;;;0.90;0.90;;;19.60;47.80;;;;;;5134485;28;20127;-9
2022/10/10 02:17:10;;;;;;;1.10;1.00;;;19.60;47.80;;;;;;5134491;28;20130;-9
2022/10/10 02:19:41;;;;;;;1.25;1.15;;;19.60;47.80;;;;;;5133919;28;20043;-9
2022/10/10 02:22:08;;;;;;;1.02;0.80;;;19.60;47.90;;;;;;5134438;28;20051;-9
2022/10/10 02:24:34;;;;;;;1.00;0.90;;;19.60;47.90;;;;;;5133979;28;20047;-9
2022/10/10 02:27:18;;;;;;;1.50;1.02;;;19.60;47.80;;;;;;5134223;28;20107;-9
2022/10/10 02:29:46;;;;;;;1.25;0.90;;;19.60;47.90;;;;;;5133859;28;20043;-9
2022/10/10 02:32:25;;;;;;;1.45;0.88;;;19.60;47.90;;;;;;5133774;28;20061;-9
2022/10/10 02:34:55;;;;;;;1.10;1.00;;;19.60;47.90;;;;;;5134266;28;20039;-9
2022/10/10 02:37:22;;;;;;;1.85;1.02;;;19.60;47.80;;;;;;5134011;28;20163;-9
2022/10/10 02:39:52;;;;;;;0.98;0.80;;;19.60;47.80;;;;;;5134056;28;20059;-9
2022/10/10 02:42:21;;;;;;;0.95;0.90;;;19.60;47.70;;;;;;5134072;28;20055;-9
2022/10/10 02:44:47;;;;;;;1.13;0.80;;;19.60;47.70;;;;;;5133678;28;20502;-9
2022/10/10 02:47:13;;;;;;;0.98;0.80;;;19.70;47.60;;;;;;5133770;28;20062;-9
2022/10/10 02:49:39;;;;;;;0.95;0.75;;;19.80;47.50;;;;;;5133559;28;20046;-9
2022/10/10 02:52:05;;;;;;;2.00;0.90;;;19.80;47.40;;;;;;5133941;28;20130;-9
2022/10/10 02:54:31;;;;;;;1.35;1.00;;;19.80;47.30;;;;;;5133582;28;20089;-9
2022/10/10 02:56:56;;;;;;;1.08;0.80;;;19.90;47.20;;;;;;5133697;28;20093;-9
2022/10/10 02:59:25;;;;;;;1.52;1.20;;;19.90;47.10;;;;;;5133598;28;20104;-9
2022/10/10 03:01:50;;;;;;;1.20;1.02;;;19.90;47.00;;;;;;5133475;28;20486;-9
2022/10/10 03:04:16;;;;;;;1.02;0.93;;;20.00;47.00;;;;;;5133351;28;20062;-9
2022/10/10 03:06:42;;;;;;;1.10;0.90;;;20.00;46.90;;;;;;5133326;28;20051;-9
2022/10/10 03:09:08;;;;;;;0.85;0.80;;;20.00;46.80;;;;;;5133256;27;20130;-9
2022/10/10 03:11:33;;;;;;;1.30;1.05;;;20.10;46.70;;;;;;5136104;28;20059;-9
2022/10/10 03:13:59;;;;;;;1.25;1.02;;;20.10;46.60;;;;;;5137380;28;20050;-9
2022/10/10 03:16:24;;;;;;;1.45;1.15;;;20.20;46.60;;;;;;5137117;28;20376;-9
2022/10/10 03:18:50;;;;;;;1.52;1.00;;;20.20;46.50;;;;;;5136894;28;20135;-9
2022/10/10 03:21:16;;;;;;;1.85;1.05;;;20.20;46.90;;;;;;5137074;28;20051;-9
2022/10/10 03:23:41;;;;;;;1.35;1.20;;;20.20;46.30;;;;;;5136886;28;20130;-9
2022/10/10 03:26:07;;;;;;;1.02;0.90;;;20.30;46.30;;;;;;5136933;28;20047;-9
2022/10/10 03:28:32;;;;;;;1.45;1.10;;;20.30;46.20;;;;;;5136573;28;20057;-9
2022/10/10 03:30:58;;;;;;;1.27;0.90;;;20.30;46.10;;;;;;5136695;28;20050;-9
2022/10/10 03:33:24;;;;;;;1.10;1.00;;;20.40;46.10;;;;;;5136800;28;20544;-9
2022/10/10 03:35:49;;;;;;;1.00;0.90;;;20.40;46.00;;;;;;5136775;28;20448;-9
2022/10/10 03:38:15;;;;;;;2.25;1.15;;;20.40;46.10;;;;;;5136910;28;20130;-9
2022/10/10 03:40:42;;;;;;;2.25;1.08;;;20.40;46.00;;;;;;5136715;28;20055;-9
2022/10/10 03:43:10;;;;;;;1.27;1.02;;;20.40;46.00;;;;;;5136655;28;20055;-9
2022/10/10 03:45:36;;;;;;;1.48;0.90;;;20.40;45.90;;;;;;5136921;28;20058;-9
2022/10/10 03:48:01;;;;;;;3.03;1.45;;;20.40;45.90;;;;;;5136987;28;20398;-9
2022/10/10 03:50:27;;;;;;;1.10;1.00;;;20.40;45.90;;;;;;5136748;28;20043;-9
2022/10/10 03:52:53;;;;;;;0.85;0.85;;;20.40;45.80;;;;;;5136787;28;20043;-9
2022/10/10 03:55:18;;;;;;;3.08;1.38;;;20.50;45.90;;;;;;5136743;28;20047;-9
2022/10/10 03:57:44;;;;;;;1.10;0.85;;;20.50;45.90;;;;;;5136297;28;20047;-9
2022/10/10 04:00:10;;;;;;;1.02;0.82;;;20.50;45.80;;;;;;5136428;28;20046;-9
2022/10/10 04:02:36;;;;;;;3.03;1.00;;;20.40;45.80;;;;;;5136155;28;22425;-9
2022/10/10 04:05:02;;;;;;;1.33;1.00;;;20.40;45.80;;;;;;5136266;28;20143;-9
2022/10/10 04:07:28;;;;;;;1.38;0.90;;;20.50;45.90;;;;;;5136103;28;20043;-9
2022/10/10 04:09:54;;;;;;;1.65;1.02;;;20.40;45.80;;;;;;5136114;28;20411;-9
2022/10/10 04:12:19;;;;;;;1.67;1.00;;;20.40;45.90;;;;;;5136336;28;20050;-9
2022/10/10 04:14:45;;;;;;;0.80;0.80;;;20.40;45.90;;;;;;5136468;28;20047;-9
2022/10/10 04:17:11;;;;;;;0.88;0.60;;;20.40;45.90;;;;;;5136410;28;20055;-9
2022/10/10 04:19:37;;;;;;;1.08;0.90;;;20.40;45.90;;;;;;5136011;28;20043;-9
2022/10/10 04:22:02;;;;;;;1.00;0.80;;;20.40;45.90;;;;;;5135363;27;20051;-9
2022/10/10 04:24:28;;;;;;;1.00;0.90;;;20.40;45.90;;;;;;5135986;28;20047;-9
2022/10/10 04:26:55;;;;;;;1.92;0.90;;;20.40;45.90;;;;;;5135922;28;20517;-9
2022/10/10 04:29:20;;;;;;;1.13;1.00;;;20.40;45.90;;;;;;5135610;28;20055;-9
2022/10/10 04:31:46;;;;;;;1.33;0.90;;;20.40;46.00;;;;;;5135697;28;20055;-9
2022/10/10 04:34:11;;;;;;;1.10;0.80;;;20.30;45.90;;;;;;5135744;28;20079;-9
2022/10/10 04:36:37;;;;;;;0.80;0.70;;;20.40;45.90;;;;;;5135918;28;20869;-9
2022/10/10 04:39:03;;;;;;;1.55;0.90;;;20.30;45.90;;;;;;5135537;28;20096;-9
2022/10/10 04:41:28;;;;;;;0.98;0.90;;;20.40;45.90;;;;;;5135781;28;20062;-9
2022/10/10 04:43:54;;;;;;;1.23;0.70;;;20.40;45.90;;;;;;5135479;28;20051;-9
2022/10/10 04:46:19;;;;;;;2.15;1.10;;;20.40;45.90;;;;;;5135892;28;20051;-9
2022/10/10 04:48:45;;;;;;;2.15;1.20;;;20.40;45.90;;;;;;5136214;28;20099;-9
2022/10/10 04:51:10;;;;;;;0.73;0.73;;;20.40;45.90;;;;;;5135471;28;20043;-9
2022/10/10 04:53:36;;;;;;;1.00;0.90;;;20.40;45.80;;;;;;5135417;28;20047;-9
2022/10/10 04:56:02;;;;;;;1.27;1.10;;;20.40;45.90;;;;;;5135789;28;20406;-9
2022/10/10 04:58:27;;;;;;;0.93;0.75;;;20.40;45.80;;;;;;5135234;28;20123;-9
2022/10/10 05:00:54;;;;;;;1.60;1.00;;;20.40;45.90;;;;;;5135307;28;20138;-9
2022/10/10 05:03:24;;;;;;;1.42;0.93;;;20.40;45.80;;;;;;5135292;28;20495;-9
2022/10/10 05:05:51;;;;;;;1.30;0.85;;;20.40;46.40;;;;;;5135372;28;20375;-9
2022/10/10 05:08:17;;;;;;;1.38;1.10;;;20.40;45.80;;;;;;5135032;28;20506;-9
2022/10/10 05:10:44;;;;;;;1.13;0.70;;;20.40;45.80;;;;;;5135466;28;20059;-9
2022/10/10 05:13:15;;;;;;;1.38;0.90;;;20.40;45.80;;;;;;5135440;28;20398;-9
2022/10/10 05:15:41;;;;;;;1.48;1.10;;;20.40;45.80;;;;;;5135214;28;20047;-9
2022/10/10 05:18:07;;;;;;;1.30;0.90;;;20.40;45.80;;;;;;5115167;28;20135;-10
2022/10/10 05:20:33;;;;;;;0.80;0.80;;;20.40;45.70;;;;;;5134943;28;20078;-10
2022/10/10 05:22:59;;;;;;;1.23;1.00;;;20.40;45.70;;;;;;5134847;28;20144;-10
2022/10/10 05:25:25;;;;;;;1.67;0.80;;;20.40;45.70;;;;;;5134951;28;20050;-10
2022/10/10 05:27:51;;;;;;;1.75;1.00;;;20.40;45.70;;;;;;5135156;28;20356;-10
2022/10/10 05:30:17;;;;;;;0.90;0.90;;;20.40;45.70;;;;;;5135185;28;20463;-10
2022/10/10 05:32:42;;;;;;;1.40;1.10;;;20.40;45.70;;;;;;5134177;27;20090;-10
2022/10/10 05:35:08;;;;;;;2.13;1.17;;;20.40;45.70;;;;;;5134611;28;20372;-10
2022/10/10 05:37:34;;;;;;;0.90;0.80;;;20.40;45.70;;;;;;5135339;28;20524;-9
2022/10/10 05:40:00;;;;;;;0.80;0.80;;;20.40;45.70;;;;;;5134737;28;20051;-10
2022/10/10 05:42:26;;;;;;;1.35;1.10;;;20.40;45.70;;;;;;5134520;28;20133;-10
2022/10/10 05:44:51;;;;;;;1.10;0.80;;;20.40;45.80;;;;;;5134639;28;20059;-10
2022/10/10 05:47:17;;;;;;;1.13;1.02;;;20.40;45.70;;;;;;5134945;28;20043;-10
2022/10/10 05:49:42;;;;;;;3.15;0.80;;;20.40;45.70;;;;;;5134484;28;20491;-10
2022/10/10 05:52:08;;;;;;;0.75;0.75;;;20.40;45.70;;;;;;5134556;28;20388;-10
2022/10/10 05:54:34;;;;;;;1.05;0.77;;;20.40;45.70;;;;;;5134717;28;20054;-10
2022/10/10 05:57:00;;;;;;;2.42;1.40;;;20.40;45.60;;;;;;5134905;28;20142;-10
2022/10/10 05:59:30;;;;;;;1.30;1.17;;;20.50;45.60;;;;;;5134646;28;20134;-10
2022/10/10 06:01:56;;;;;;;1.50;0.93;;;20.50;45.60;;;;;;5134708;28;20402;-10
2022/10/10 06:04:22;;;;;;;2.08;1.10;;;20.50;45.50;;;;;;5134517;28;20039;-10
2022/10/10 06:06:48;;;;;;;1.48;1.00;;;20.50;45.50;;;;;;5133957;28;20558;-10
2022/10/10 06:09:14;;;;;;;1.02;0.80;;;20.60;45.30;;;;;;5133906;28;20070;-10
2022/10/10 06:11:40;;;;;;;1.10;1.00;;;20.60;45.20;;;;;;5134121;28;20479;-10
2022/10/10 06:14:07;;;;;;;1.42;1.05;;;20.70;45.20;;;;;;5133534;28;20051;-10
2022/10/10 06:16:34;;;;;;;1.50;0.93;;;20.80;45.10;;;;;;5133829;28;20131;-11
2022/10/10 06:18:59;;;;;;;2.05;1.15;;;20.80;45.00;;;;;;5133253;28;20144;-11
2022/10/10 06:21:25;;;;;;;1.50;0.82;;;20.90;44.80;;;;;;5115084;28;20125;-11
2022/10/10 06:23:51;;;;;;;1.85;1.00;;;20.90;44.70;;;;;;5133561;28;20051;-11
2022/10/10 06:26:17;;;;;;;1.92;1.00;;;20.90;44.60;;;;;;5133559;28;20112;-11
2022/10/10 06:28:42;;;;;;;1.45;0.90;;;21.00;44.50;;;;;;5133246;28;20047;-11
2022/10/10 06:31:13;;;;;;;1.33;0.68;;;21.10;44.50;;;;;;5133574;28;20489;-11
2022/10/10 06:33:42;;;;;;;1.60;0.95;;;21.10;44.30;;;;;;5133901;28;20486;-11
2022/10/10 06:36:09;;;;;;;2.55;1.00;;;21.20;44.20;;;;;;5133484;28;20062;-11
2022/10/10 06:38:42;;;;;;;2.13;1.05;;;21.30;44.10;;;;;;5133369;28;20084;-11
2022/10/10 06:41:09;;;;;;;1.63;1.23;;;21.30;44.00;;;;;;5133478;28;20051;-11
2022/10/10 06:43:35;;;;;;;1.27;0.90;;;21.30;43.80;;;;;;5133576;28;20058;-11
2022/10/10 06:46:01;;;;;;;1.75;1.10;;;21.40;43.80;;;;;;5133099;27;20487;-11
2022/10/10 06:48:28;;;;;;;0.80;0.80;;;21.40;43.80;;;;;;5133251;28;20096;-12
2022/10/10 06:51:03;;;;;;;0.90;0.70;;;21.50;43.70;;;;;;5133144;28;20448;-11
2022/10/10 06:53:29;;;;;;;0.80;0.80;;;21.50;43.70;;;;;;5133489;28;20494;-11
2022/10/10 06:55:55;;;;;;;1.63;0.90;;;21.50;43.60;;;;;;5133337;28;20043;-11
2022/10/10 06:58:22;;;;;;;1.35;0.98;;;21.60;43.50;;;;;;5133438;28;20043;-11
2022/10/10 07:00:56;;;;;;;0.98;0.80;;;21.60;43.40;;;;;;5133614;28;20535;-11
2022/10/10 07:03:23;;;;;;;1.40;1.05;;;21.60;43.40;;;;;;5133478;28;20043;-11
2022/10/10 07:05:51;;;;;;;1.67;0.93;;;21.60;43.30;;;;;;5133054;28;20088;-12
2022/10/10 07:08:16;;;;;;;0.98;0.90;;;21.70;43.20;;;;;;5133274;28;20524;-11
2022/10/10 07:10:42;;;;;;;1.27;0.90;;;21.80;43.20;;;;;;5133146;28;20163;-11
2022/10/10 07:13:07;;;;;;;1.33;1.00;;;22.00;42.80;;;;;;5133010;28;20070;-11
2022/10/10 07:15:33;;;;;;;1.05;0.90;;;22.10;43.10;;;;;;5132370;28;20134;-11
2022/10/10 07:17:59;;;;;;;1.77;1.10;;;22.00;42.60;;;;;;5133081;28;20529;-11
2022/10/10 07:20:26;;;;;;;1.10;0.90;;;22.00;42.60;;;;;;5132804;28;20194;-11
2022/10/10 07:22:52;;;;;;;0.93;0.77;;;21.90;42.70;;;;;;5132815;28;20503;-11
2022/10/10 07:25:17;;;;;;;1.90;0.98;;;21.90;42.80;;;;;;5132725;28;20864;-10
2022/10/10 07:27:43;;;;;;;1.23;1.13;;;21.90;42.90;;;;;;5132620;28;20120;-11
2022/10/10 07:30:09;;;;;;;1.65;0.95;;;21.90;42.90;;;;;;5133000;28;20058;-11
2022/10/10 07:32:35;;;;;;;1.35;1.00;;;21.90;43.00;;;;;;5132963;28;20483;-11
2022/10/10 07:35:00;;;;;;;1.23;1.00;;;21.80;42.90;;;;;;5132648;28;20103;-11
2022/10/10 07:37:26;;;;;;;1.00;0.90;;;21.90;43.00;;;;;;5132359;28;20458;-11
2022/10/10 07:39:52;;;;;;;1.02;0.93;;;21.80;43.00;;;;;;5132720;28;20043;-11
2022/10/10 07:42:18;;;;;;;1.30;1.10;;;21.80;43.00;;;;;;5132694;28;20126;-11
2022/10/10 07:44:44;;;;;;;1.10;0.90;;;21.70;43.10;;;;;;5132713;28;20137;-11
2022/10/10 07:47:09;;;;;;;2.33;0.90;;;21.70;43.10;;;;;;5132827;28;20055;-11
2022/10/10 07:49:35;;;;;;;1.08;1.00;;;21.70;43.20;;;;;;5132525;28;20076;-11
2022/10/10 07:52:01;;;;;;;1.23;0.98;;;21.60;43.20;;;;;;5132493;28;20051;-11
2022/10/10 07:54:30;;;;;;;1.15;1.00;;;21.60;43.30;;;;;;5131650;28;20047;-11
2022/10/10 07:56:56;;;;;;;1.10;0.98;;;21.60;43.30;;;;;;5132758;27;20058;-11
2022/10/10 07:59:23;;;;;;;1.50;0.98;;;21.60;43.30;;;;;;5135997;28;20159;-11
2022/10/10 08:01:49;;;;;;;1.13;1.00;;;21.50;43.40;;;;;;5135316;28;20080;-12
2022/10/10 08:04:15;;;;;;;1.50;1.20;;;21.50;43.50;;;;;;5134669;28;20050;-11
2022/10/10 08:06:41;;;;;;;2.20;1.20;;;21.50;43.60;;;;;;5135691;28;20051;-11
2022/10/10 08:09:07;;;;;;;0.85;0.82;;;21.40;43.60;;;;;;5115550;28;20393;-14
2022/10/10 08:11:32;;;;;;;1.95;1.02;;;21.40;43.70;;;;;;5133386;28;20061;-13
2022/10/10 08:13:58;;;;;;;1.90;1.13;;;21.40;43.80;;;;;;5134024;28;20100;-12
2022/10/10 08:16:24;;;;;;;2.90;1.20;;;21.30;43.80;;;;;;5134072;28;20081;-11
2022/10/10 08:18:50;;;;;;;2.15;1.10;;;21.30;43.80;;;;;;5133450;28;20059;-12
2022/10/10 08:21:17;;;;;;;2.03;1.00;;;21.30;44.00;;;;;;5134124;28;20100;-11
2022/10/10 08:23:43;;;;;;;1.23;1.13;;;21.20;44.10;;;;;;5135602;28;20039;-11
2022/10/10 08:26:11;;;;;;;1.13;0.90;;;21.20;44.20;;;;;;5135774;28;20051;-11
2022/10/10 08:28:37;;;;;;;1.52;1.10;;;21.10;44.30;;;;;;5135499;28;20059;-11
2022/10/10 08:31:05;;;;;;;1.58;1.10;;;21.10;44.40;;;;;;5135382;28;20414;-11
2022/10/10 08:33:31;;;;;;;1.10;0.82;;;21.10;44.40;;;;;;5135250;28;20065;-11
2022/10/10 08:35:57;;;;;;;2.58;1.10;;;21.00;44.40;;;;;;5135032;28;20122;-11
2022/10/10 08:38:22;;;;;;;2.05;1.10;;;21.10;44.40;;;;;;5135083;28;20051;-11
2022/10/10 08:40:52;;;;;;;1.63;1.10;;;21.00;44.50;;;;;;5136072;28;20139;-11
2022/10/10 08:43:25;;;;;;;2.63;1.23;;;21.00;44.50;;;;;;5135018;28;20039;-11
2022/10/10 08:45:54;;;;;;;0.80;0.80;;;21.00;44.60;;;;;;5135245;28;20373;-11
2022/10/10 08:48:24;;;;;;;1.17;1.00;;;21.00;44.60;;;;;;5134910;28;20039;-11
2022/10/10 08:51:03;;;;;;;1.30;1.00;;;21.00;44.60;;;;;;5135067;28;20565;-11
2022/10/10 08:53:41;;;;;;;1.90;1.00;;;20.90;44.50;;;;;;5132756;28;20517;-14
2022/10/10 08:56:13;;;;;;;1.40;1.13;;;20.90;44.50;;;;;;5132911;28;20055;-13
2022/10/10 08:58:44;;;;;;;1.00;0.90;;;21.00;44.60;;;;;;5132792;28;20171;-12
2022/10/10 09:01:22;;;;;;;0.70;0.60;;;20.90;44.60;;;;;;5133177;28;20391;-13
2022/10/10 09:03:53;;;;;;;1.13;1.02;;;20.90;44.60;;;;;;5133357;28;20161;-11
2022/10/10 09:06:39;;;;;;;;;;;20.90;44.60;;;;;;5134147;28;20081;-9
2022/10/10 09:09:14;;;;;;;1.45;1.10;;;21.00;44.70;;;;;;5133862;27;19923;-10
2022/10/10 09:12:10;;;;;;;1.63;1.15;;;20.90;44.60;;;;;;5134353;28;20050;-9
2022/10/10 09:14:54;;;;;;;0.98;0.88;;;20.90;44.60;;;;;;5134789;28;20070;-11
2022/10/10 09:17:38;;;;;;;1.30;1.10;;;20.90;44.60;;;;;;5115573;28;20448;-9
2022/10/10 09:20:17;;;;;;;1.30;1.17;;;20.90;44.60;;;;;;5134544;28;20043;-10
2022/10/10 09:23:15;;;;;;;1.83;1.42;;;21.00;44.70;;;;;;5134828;28;20047;-10
2022/10/10 09:26:04;;;;;;;1.70;1.10;;;20.90;44.70;;;;;;5127194;28;20463;-11
2022/10/10 09:28:43;;;;;;;1.73;1.20;;;20.90;44.70;;;;;;5134786;28;20059;-11
2022/10/10 09:31:35;;;;;;;1.63;1.15;;;20.90;44.70;;;;;;5134642;28;20533;-11
2022/10/10 09:34:09;;;;;;;2.35;1.45;;;20.90;44.60;;;;;;5134192;28;20047;-11
2022/10/10 09:36:36;;;;;;;1.40;1.10;;;20.90;44.70;;;;;;5133580;28;20543;-11
2022/10/10 09:39:02;;;;;;;1.20;1.00;;;20.90;44.70;;;;;;5134253;28;20043;-11
2022/10/10 09:41:39;;;;;;;1.52;1.00;;;20.90;44.70;;;;;;5135062;28;20372;-11
2022/10/10 09:44:10;;;;;;;2.47;1.42;;;20.90;44.70;;;;;;5134169;28;20055;-11
2022/10/10 09:46:37;;;;;;;1.60;1.00;;;20.90;44.70;;;;;;5134416;28;20145;-11
2022/10/10 09:49:03;;;;;;;1.23;1.10;;;20.90;44.70;;;;;;5115772;28;20485;-11
2022/10/10 09:51:30;;;;;;;1.60;1.02;;;20.90;44.70;;;;;;5134645;28;20521;-11
2022/10/10 09:53:56;;;;;;;1.73;1.10;;;20.90;44.70;;;;;;5134435;28;20039;-11
2022/10/10 09:56:29;;;;;;;1.45;1.00;;;20.90;44.70;;;;;;5134282;28;20055;-11
2022/10/10 09:58:56;;;;;;;1.65;1.35;;;20.90;44.70;;;;;;5134124;28;20047;-11
2022/10/10 10:01:25;;;;;;;1.63;1.25;;;20.90;44.70;;;;;;5134070;28;20047;-11
2022/10/10 10:04:14;;;;;;;2.58;1.33;;;20.90;44.70;;;;;;5133857;28;20051;-11
2022/10/10 10:06:49;;;;;;;1.40;1.20;;;20.90;44.70;;;;;;5134201;28;20070;-11
2022/10/10 10:09:21;;;;;;;2.03;1.45;;;20.90;44.70;;;;;;5133248;28;20067;-11
2022/10/10 10:11:53;;;;;;;2.88;1.13;;;20.90;44.70;;;;;;5132070;28;20066;-11
2022/10/10 10:14:26;;;;;;;1.60;1.38;;;20.90;44.70;;;;;;5132849;28;20285;-11
2022/10/10 10:17:08;;;;;;;1.88;1.20;;;20.90;44.60;;;;;;5133022;28;20047;-11
2022/10/10 10:19:40;;;;;;;2.03;1.23;;;20.90;44.70;;;;;;5133021;27;20047;-11
2022/10/10 10:22:31;;;;;;;1.52;1.27;;;20.90;44.70;;;;;;5133501;28;20071;-11
2022/10/10 10:24:58;;;;;;;1.23;1.13;;;20.90;44.70;;;;;;5133806;28;20047;-11
2022/10/10 10:27:26;;;;;;;1.50;1.00;;;20.90;44.70;;;;;;5133538;28;20058;-11
2022/10/10 10:29:57;;;;;;;1.35;1.20;;;20.90;44.70;;;;;;5133338;28;20410;-11
2022/10/10 10:32:40;;;;;;;2.15;1.40;;;20.90;44.70;;;;;;5133705;28;20505;-11
2022/10/10 10:35:30;;;;;;;1.80;1.40;;;20.90;44.70;;;;;;5133512;28;20043;-11
2022/10/10 10:38:13;;;;;;;2.80;1.13;;;20.90;44.70;;;;;;5133459;28;20050;-11
2022/10/10 10:40:56;;;;;;;1.92;1.45;;;21.00;44.70;;;;;;5131649;28;20051;-12
2022/10/10 10:43:30;;;;;;;2.15;1.30;;;20.90;44.60;;;;;;5131038;28;20074;-12
2022/10/10 10:46:03;;;;;;;1.33;1.10;;;20.90;44.70;;;;;;5132017;28;20396;-11
2022/10/10 10:49:00;;;;;;;3.70;1.30;;;20.90;44.70;;;;;;5131891;28;20134;-12
2022/10/10 10:51:48;;;;;;;2.40;1.30;;;20.90;44.70;;;;;;5132174;28;20062;-10
2022/10/10 10:54:19;;;;;;;3.03;1.27;;;20.90;44.70;;;;;;5132175;28;20050;-13
2022/10/10 10:57:18;;;;;;;1.45;1.30;;;20.90;44.70;;;;;;5133087;28;20043;-11
2022/10/10 11:00:00;;;;;;;1.92;1.38;;;20.90;44.70;;;;;;5087121;28;20119;-11
2022/10/10 11:02:57;;;;;;;2.20;1.30;;;20.90;44.70;;;;;;5133483;28;20057;-11
2022/10/10 11:05:34;;;;;;;1.90;1.20;;;20.90;44.70;;;;;;5133003;28;20399;-11
2022/10/10 11:08:09;;;;;;;1.30;1.20;;;20.90;44.70;;;;;;5133228;28;20059;-11
2022/10/10 11:10:47;;;;;;;1.85;1.48;;;20.90;44.70;;;;;;5133568;28;20130;-11
2022/10/10 11:13:21;;;;;;;2.15;1.20;;;20.90;44.70;;;;;;5132897;28;20491;-11
2022/10/10 11:15:55;;;;;;;1.45;1.30;;;20.90;44.70;;;;;;5133204;28;20054;-11
2022/10/10 11:18:29;;;;;;;1.40;1.17;;;21.00;44.70;;;;;;5133366;28;20104;-11
2022/10/10 11:21:15;;;;;;;1.88;1.38;;;20.90;44.70;;;;;;5132984;28;20123;-11
2022/10/10 11:23:59;;;;;;;1.25;1.15;;;20.90;44.70;;;;;;5132654;28;20047;-11
2022/10/10 11:26:39;;;;;;;1.52;1.15;;;21.00;44.70;;;;;;5133295;28;20403;-11
2022/10/10 11:29:13;;;;;;;1.95;1.00;;;20.90;44.70;;;;;;5131355;28;20100;-11
2022/10/10 11:31:44;;;;;;;1.70;1.20;;;20.90;44.70;;;;;;5133713;27;20112;-11
2022/10/10 11:34:26;;;;;;;2.63;1.20;;;20.90;44.70;;;;;;5136518;28;20113;-11
2022/10/10 11:36:56;;;;;;;1.48;1.20;;;20.90;44.70;;;;;;5136307;28;20467;-11
2022/10/10 11:39:45;;;;;;;1.25;1.10;;;20.90;44.70;;;;;;5135060;28;20047;-11
2022/10/10 11:42:17;;;;;;;1.80;1.20;;;20.90;44.70;;;;;;5136063;28;20058;-11
2022/10/10 11:44:55;;;;;;;1.40;1.10;;;20.90;44.70;;;;;;5136602;28;20467;-10
2022/10/10 11:47:36;;;;;;;1.10;1.00;;;20.90;44.70;;;;;;5136188;28;20043;-10
2022/10/10 11:50:20;;;;;;;2.78;1.50;;;21.00;44.70;;;;;;5136538;28;20099;-11
2022/10/10 11:52:56;;;;;;;2.45;1.30;;;20.90;44.70;;;;;;5136440;28;20046;-10
2022/10/10 11:55:37;;;;;;;1.63;1.20;;;21.00;44.70;;;;;;5136494;28;20051;-10
2022/10/10 11:58:04;;;;;;;2.05;1.15;;;21.00;44.70;;;;;;5136283;28;20133;-10
2022/10/10 12:00:38;;;;;;;4.38;1.30;;;21.00;44.70;;;;;;5136138;28;20506;-11
2022/10/10 12:03:07;;;;;;;1.40;1.30;;;21.00;44.70;;;;;;5135801;28;20043;-11
2022/10/10 12:05:37;;;;;;;1.70;1.20;;;21.00;44.70;;;;;;5136570;28;20459;-11
2022/10/10 12:08:11;;;;;;;1.50;1.07;;;20.90;44.70;;;;;;5136130;28;20047;-11
2022/10/10 12:10:45;;;;;;;1.65;1.35;;;21.00;44.80;;;;;;5136033;28;20551;-11
2022/10/10 12:13:25;;;;;;;1.67;1.33;;;21.00;44.80;;;;;;5136381;28;20048;-12
2022/10/10 12:15:55;;;;;;;4.07;1.42;;;21.00;44.70;;;;;;5135774;28;20446;-11
2022/10/10 12:18:45;;;;;;;2.45;1.60;;;21.00;44.70;;;;;;5136049;28;20058;-11
2022/10/10 12:21:17;;;;;;;4.20;1.73;;;21.10;44.70;;;;;;5135603;28;20137;-11
2022/10/10 12:23:47;;;;;;;1.52;1.33;;;21.10;44.60;;;;;;5136033;28;20059;-11
2022/10/10 12:26:16;;;;;;;2.22;1.52;;;21.10;44.70;;;;;;5135696;28;20108;-11
2022/10/10 12:29:03;;;;;;;1.90;1.33;;;21.10;44.70;;;;;;5136049;28;20095;-11
2022/10/10 12:31:37;;;;;;;2.88;1.73;;;21.10;44.70;;;;;;5135741;28;20485;-11
2022/10/10 12:34:07;;;;;;;1.70;1.55;;;21.10;44.80;;;;;;5135483;28;20402;-12
2022/10/10 12:36:53;;;;;;;4.43;1.83;;;21.10;44.80;;;;;;5136095;28;20051;-11
2022/10/10 12:39:18;;;;;;;2.83;1.40;;;21.10;44.80;;;;;;5134689;28;20541;-15
2022/10/10 12:41:55;;;;;;;2.00;1.40;;;21.10;44.80;;;;;;5134410;27;20143;-11
2022/10/10 12:44:33;;;;;;;2.78;1.50;;;21.10;44.80;;;;;;5134467;28;20048;-11
2022/10/10 12:47:15;;;;;;;2.80;1.42;;;21.10;44.80;;;;;;5135232;28;20134;-11
2022/10/10 12:49:54;;;;;;;2.70;1.30;;;21.10;44.70;;;;;;5133082;28;20047;-11
2022/10/10 12:52:27;;;;;;;4.15;1.52;;;21.10;44.70;;;;;;5133940;28;20547;-11
2022/10/10 12:55:08;;;;;;;1.20;1.05;;;21.20;44.80;;;;;;5134664;28;20054;-11
2022/10/10 12:57:42;;;;;;;6.13;1.60;;;21.10;44.70;;;;;;5134294;28;20093;-12
2022/10/10 13:00:41;;;;;;;1.30;1.20;;;21.10;44.70;;;;;;5133323;28;20078;-11
2022/10/10 13:03:25;;;;;;;2.38;1.33;;;21.10;44.70;;;;;;5134547;28;20047;-11
2022/10/10 13:05:51;;;;;;;4.22;1.42;;;21.10;44.80;;;;;;5135184;28;20076;-11
2022/10/10 13:08:23;;;;;;;3.28;1.40;;;21.10;44.80;;;;;;5134752;28;20069;-11
2022/10/10 13:11:11;;;;;;;1.90;1.40;;;21.10;44.80;;;;;;5132570;28;20510;-12